Time;durP1;ratioP1;P1;durP2;ratioP2;P2;SDS_P1;SDS_P2;PMS_P1;PMS_P2;Temp;Humidity;BMP_temperature;BMP_pressure;BME280_temperature;BME280_humidity;BME280_pressure;Samples;Min_cycle;Max_cycle;Signal;HPM_P1;HPM_P2
2021/06/23 00:01:17;;;;;;;20.92;12.25;;;13.50;83.70;12.70;101976.00;;;;5036576;28;20059;-68
2021/06/23 00:03:43;;;;;;;19.70;11.50;;;13.60;84.80;12.70;101971.00;;;;5015830;28;20040;-68
2021/06/23 00:06:09;;;;;;;24.10;12.70;;;13.50;84.70;12.60;101968.00;;;;5044535;28;20037;-68
2021/06/23 00:08:35;;;;;;;20.77;12.18;;;13.40;84.80;12.50;101972.00;;;;5045918;28;20667;-68
2021/06/23 00:11:03;;;;;;;20.45;13.18;;;13.40;84.60;12.40;101959.00;;;;5042519;28;20047;-68
2021/06/23 00:13:32;;;;;;;21.85;13.38;;;13.20;84.90;12.30;101961.00;;;;5040791;28;20068;-68
2021/06/23 00:16:01;;;;;;;22.20;13.43;;;13.30;85.30;12.30;101951.00;;;;5039962;28;20055;-68
2021/06/23 00:18:27;;;;;;;25.20;14.18;;;13.20;85.30;12.30;101940.00;;;;5042885;28;20871;-68
2021/06/23 00:20:53;;;;;;;20.55;12.85;;;13.10;85.30;12.20;101935.00;;;;5041051;28;20044;-68
2021/06/23 00:23:19;;;;;;;27.73;13.93;;;13.10;85.70;12.10;101935.00;;;;5044719;28;20041;-68
2021/06/23 00:25:44;;;;;;;26.00;15.23;;;13.00;84.90;12.10;101921.00;;;;5041768;28;20040;-68
2021/06/23 00:28:10;;;;;;;26.88;14.60;;;12.90;86.00;12.10;101922.00;;;;5040240;28;20103;-68
2021/06/23 00:30:37;;;;;;;20.35;14.70;;;12.90;85.70;12.10;101927.00;;;;5041314;28;20052;-68
2021/06/23 00:33:10;;;;;;;25.75;13.90;;;12.90;85.00;12.10;101939.00;;;;5042256;28;20052;-68
2021/06/23 00:35:36;;;;;;;23.33;14.57;;;12.90;85.80;12.10;101941.00;;;;5038045;28;20037;-68
2021/06/23 00:38:04;;;;;;;26.23;14.70;;;13.00;85.20;12.20;101943.00;;;;5024152;28;20052;-68
2021/06/23 00:40:30;;;;;;;26.45;14.10;;;13.00;86.20;12.20;101938.00;;;;5050230;28;20045;-68
2021/06/23 00:42:57;;;;;;;25.95;14.30;;;13.00;86.10;12.10;101948.00;;;;5049704;28;20045;-67
2021/06/23 00:45:23;;;;;;;21.73;14.73;;;13.00;86.30;12.10;101946.00;;;;5052861;28;20049;-68
2021/06/23 00:47:53;;;;;;;32.93;15.43;;;13.00;85.90;12.10;101947.00;;;;5038043;28;20288;-68
2021/06/23 00:50:21;;;;;;;21.55;13.70;;;12.90;86.10;12.00;101951.00;;;;5040495;28;20821;-68
2021/06/23 00:53:19;;;;;;;26.45;14.23;;;12.90;86.00;12.00;101946.00;;;;5041292;28;20049;-67
2021/06/23 00:55:51;;;;;;;21.92;13.13;;;12.90;86.30;12.00;101955.00;;;;5040007;28;20045;-68
2021/06/23 00:58:17;;;;;;;19.98;13.52;;;12.90;85.30;12.00;101951.00;;;;5015919;28;20041;-68
2021/06/23 01:00:43;;;;;;;29.35;14.52;;;12.80;86.20;12.00;101958.00;;;;5010521;28;20052;-68
2021/06/23 01:03:10;;;;;;;22.70;13.43;;;12.80;86.50;11.90;101947.00;;;;5038885;28;20040;-67
2021/06/23 01:05:40;;;;;;;20.63;13.48;;;12.80;86.70;11.90;101949.00;;;;5029713;28;20486;-67
2021/06/23 01:08:11;;;;;;;24.15;13.70;;;12.80;86.30;11.90;101940.00;;;;5025863;28;20045;-68
2021/06/23 01:10:38;;;;;;;26.33;13.60;;;12.80;86.50;11.90;101941.00;;;;5011472;28;20049;-68
2021/06/23 01:13:23;;;;;;;18.50;12.70;;;12.80;85.50;11.90;101944.00;;;;5039683;28;20470;-68
2021/06/23 01:15:49;;;;;;;23.80;14.30;;;12.80;86.50;11.90;101954.00;;;;5055406;28;20045;-68
2021/06/23 01:18:17;;;;;;;22.20;14.13;;;12.80;85.80;11.90;101957.00;;;;5038618;28;20048;-68
2021/06/23 01:20:45;;;;;;;23.35;13.82;;;12.80;86.80;11.90;101962.00;;;;5049957;28;20105;-68
2021/06/23 01:23:14;;;;;;;23.42;13.18;;;12.80;86.70;12.00;101964.00;;;;5007671;28;20142;-68
2021/06/23 01:25:42;;;;;;;17.70;12.88;;;12.90;85.90;12.10;101964.00;;;;5021527;28;20041;-68
2021/06/23 01:28:08;;;;;;;20.63;12.68;;;12.80;86.80;12.10;101964.00;;;;5032548;28;20041;-68
2021/06/23 01:30:45;;;;;;;22.40;12.15;;;12.90;86.50;12.10;101968.00;;;;5021035;28;20029;-68
2021/06/23 01:33:29;;;;;;;25.33;13.30;;;12.90;85.80;12.10;101966.00;;;;5042993;28;20087;-68
2021/06/23 01:35:56;;;;;;;18.20;11.80;;;12.90;86.70;12.00;101966.00;;;;5048000;28;20041;-68
2021/06/23 01:38:23;;;;;;;;;;;12.90;87.00;11.90;101974.00;;;;5022101;28;20037;-68
2021/06/23 01:40:50;;;;;;;21.45;12.07;;;12.80;87.30;11.90;101983.00;;;;5039722;28;19928;-68
2021/06/23 01:43:16;;;;;;;23.52;12.50;;;12.80;85.70;12.00;101988.00;;;;5041828;28;20129;-68
2021/06/23 01:45:45;;;;;;;21.73;12.50;;;12.80;86.80;12.00;101982.00;;;;5006283;28;20048;-68
2021/06/23 01:48:18;;;;;;;22.50;12.52;;;12.80;86.20;12.00;101990.00;;;;5038990;28;20041;-68
2021/06/23 01:51:00;;;;;;;18.55;11.98;;;12.80;86.90;12.10;101986.00;;;;5051077;28;20044;-68
2021/06/23 01:53:35;;;;;;;20.93;11.57;;;12.90;86.80;12.10;101993.00;;;;5042811;28;20052;-68
2021/06/23 01:56:03;;;;;;;19.55;11.73;;;12.90;86.70;12.20;101993.00;;;;5040165;28;20396;-68
2021/06/23 01:58:38;;;;;;;21.15;11.88;;;13.00;87.00;12.20;101995.00;;;;5056891;28;20045;-68
2021/06/23 02:01:35;;;;;;;24.85;13.15;;;13.00;86.90;12.20;102000.00;;;;5022235;28;20106;-68
2021/06/23 02:04:33;;;;;;;19.10;11.87;;;13.00;87.20;12.20;101998.00;;;;5017105;28;20205;-68
2021/06/23 02:07:27;;;;;;;16.95;10.85;;;13.00;86.90;12.10;101996.00;;;;5050527;28;20321;-68
2021/06/23 02:10:20;;;;;;;25.15;12.20;;;13.00;87.00;12.10;101986.00;;;;5036491;28;20041;-68
2021/06/23 02:13:27;;;;;;;20.50;12.02;;;12.90;88.10;12.20;101995.00;;;;5039973;28;20044;-68
2021/06/23 02:15:57;;;;;;;26.60;11.98;;;13.00;87.00;12.20;101992.00;;;;5037097;28;20040;-68
2021/06/23 02:18:27;;;;;;;16.25;10.90;;;13.00;86.10;12.20;101991.00;;;;5022159;28;20400;-68
2021/06/23 02:21:09;;;;;;;24.98;13.00;;;13.00;87.00;12.20;101995.00;;;;5041933;28;20062;-68
2021/06/23 02:23:43;;;;;;;21.38;11.60;;;13.10;87.10;12.20;101999.00;;;;5040866;28;20132;-68
2021/06/23 02:26:11;;;;;;;20.67;11.07;;;13.00;86.10;12.20;101999.00;;;;5039564;28;20637;-68
2021/06/23 02:28:38;;;;;;;24.52;11.30;;;13.00;87.10;12.20;102001.00;;;;5022790;28;20084;-69
2021/06/23 02:31:09;;;;;;;22.63;11.80;;;13.00;87.00;12.10;101995.00;;;;5029487;28;20041;-69
2021/06/23 02:33:41;;;;;;;24.42;11.77;;;13.00;87.30;12.10;101999.00;;;;5021465;28;20850;-69
2021/06/23 02:36:10;;;;;;;19.50;11.40;;;13.00;87.20;12.20;102006.00;;;;5035679;28;20491;-69
2021/06/23 02:38:39;;;;;;;22.30;13.00;;;13.10;87.50;12.20;102009.00;;;;5039113;28;20056;-69
2021/06/23 02:41:06;;;;;;;18.70;10.93;;;13.00;86.40;12.20;102012.00;;;;5005820;28;20040;-70
2021/06/23 02:43:33;;;;;;;17.83;10.88;;;13.00;87.50;12.20;102004.00;;;;5040894;28;20061;-68
2021/06/23 02:46:11;;;;;;;20.73;11.48;;;13.00;86.60;12.20;102004.00;;;;5038979;28;20620;-68
2021/06/23 02:48:38;;;;;;;23.88;11.18;;;12.90;87.40;12.10;102007.00;;;;5039707;28;20080;-69
2021/06/23 02:51:20;;;;;;;22.48;11.35;;;12.70;87.30;12.10;102003.00;;;;5040038;28;20135;-69
2021/06/23 02:53:50;;;;;;;17.08;11.20;;;13.00;88.70;12.20;102011.00;;;;5038135;28;20037;-69
2021/06/23 02:56:18;;;;;;;17.05;10.73;;;13.00;87.60;12.20;102001.00;;;;5040819;28;20044;-69
2021/06/23 02:58:50;;;;;;;23.33;11.80;;;13.00;87.60;12.20;102001.00;;;;5045925;28;20033;-68
2021/06/23 03:01:17;;;;;;;22.65;10.93;;;13.00;87.80;12.20;102017.00;;;;5038189;28;20037;-69
2021/06/23 03:03:49;;;;;;;20.58;10.95;;;13.00;87.70;12.30;102018.00;;;;5042907;28;20060;-69
2021/06/23 03:06:17;;;;;;;34.50;18.98;;;13.00;87.90;12.30;102018.00;;;;5042394;28;20045;-68
2021/06/23 03:08:43;;;;;;;25.85;15.20;;;13.10;87.80;12.30;102016.00;;;;5046966;28;20049;-69
2021/06/23 03:11:14;;;;;;;27.63;15.10;;;13.10;87.40;12.30;102014.00;;;;5042504;28;20519;-69
2021/06/23 03:14:03;;;;;;;25.60;15.93;;;13.00;86.90;12.20;102012.00;;;;5040570;28;20568;-69
2021/06/23 03:16:44;;;;;;;27.13;15.50;;;13.00;87.70;12.20;102014.00;;;;5042973;28;20048;-68
2021/06/23 03:19:13;;;;;;;29.17;15.07;;;13.00;87.90;12.10;102014.00;;;;5027331;28;20095;-69
2021/06/23 03:21:39;;;;;;;30.48;15.07;;;13.00;88.10;12.10;102010.00;;;;5024581;28;20080;-68
2021/06/23 03:24:06;;;;;;;28.52;14.77;;;12.90;88.30;12.10;102008.00;;;;5042694;28;20507;-68
2021/06/23 03:26:33;;;;;;;25.50;13.85;;;12.90;88.00;12.00;102004.00;;;;5041161;28;20148;-68
2021/06/23 03:29:30;;;;;;;18.37;12.93;;;12.90;88.50;12.00;101999.00;;;;5040764;28;20049;-68
2021/06/23 03:31:59;;;;;;;25.52;12.90;;;12.90;88.60;12.00;101996.00;;;;5042957;28;20826;-68
2021/06/23 03:34:28;;;;;;;20.60;13.43;;;12.90;88.70;12.00;102005.00;;;;5024888;28;20063;-69
2021/06/23 03:37:00;;;;;;;22.98;13.13;;;12.80;89.00;12.00;102009.00;;;;5041246;28;20053;-68
2021/06/23 03:39:26;;;;;;;;;;;12.80;88.90;11.80;101997.00;;;;5040315;28;20518;-68
2021/06/23 03:42:00;;;;;;;23.90;12.40;;;12.70;88.80;11.90;102001.00;;;;5040010;28;19932;-68
2021/06/23 03:44:26;;;;;;;20.15;12.70;;;12.80;87.90;11.90;101999.00;;;;5041258;28;20045;-68
2021/06/23 03:46:55;;;;;;;28.90;13.57;;;12.80;88.80;11.90;102005.00;;;;5040886;28;20045;-69
2021/06/23 03:49:23;;;;;;;20.33;12.00;;;12.80;88.90;11.90;102002.00;;;;5041229;28;20045;-68
2021/06/23 03:51:52;;;;;;;25.08;12.30;;;12.80;88.90;11.90;102010.00;;;;5042739;28;20033;-68
2021/06/23 03:54:20;;;;;;;17.00;11.55;;;12.80;88.80;12.00;102007.00;;;;5058183;28;20056;-68
2021/06/23 03:56:49;;;;;;;22.08;11.90;;;12.80;88.20;12.00;102011.00;;;;5042471;28;20048;-68
2021/06/23 03:59:15;;;;;;;16.20;11.02;;;12.80;88.70;12.00;102016.00;;;;5038955;28;20040;-67
2021/06/23 04:01:41;;;;;;;20.42;11.27;;;12.80;88.70;12.00;102008.00;;;;5040994;28;20111;-68
2021/06/23 04:04:12;;;;;;;26.20;11.68;;;12.80;87.90;12.00;102014.00;;;;5043261;28;20072;-68
2021/06/23 04:06:38;;;;;;;27.77;11.90;;;12.80;88.60;12.00;102013.00;;;;5041436;28;20068;-68
2021/06/23 04:09:06;;;;;;;20.00;11.45;;;12.90;88.10;12.00;102012.00;;;;5056488;28;20052;-68
2021/06/23 04:11:33;;;;;;;19.52;11.20;;;12.80;88.80;12.00;102012.00;;;;5038689;28;20033;-68
2021/06/23 04:14:01;;;;;;;18.73;10.70;;;12.90;88.60;12.00;102012.00;;;;5036842;28;20042;-68
2021/06/23 04:16:28;;;;;;;21.65;10.75;;;12.80;88.80;12.00;102014.00;;;;5027408;28;20041;-68
2021/06/23 04:18:55;;;;;;;20.92;11.32;;;12.80;88.50;12.00;102016.00;;;;5044451;28;20385;-68
2021/06/23 04:21:22;;;;;;;17.00;10.93;;;12.80;88.50;12.10;102025.00;;;;5022725;28;20045;-68
2021/06/23 04:23:49;;;;;;;;;;;12.80;87.50;12.00;102031.00;;;;5042163;28;20404;-68
2021/06/23 04:26:15;;;;;;;22.10;10.65;;;12.90;88.30;12.10;102021.00;;;;5056343;28;19920;-67
2021/06/23 04:28:42;;;;;;;19.23;10.90;;;12.90;88.40;12.10;102025.00;;;;5041265;28;20041;-67
2021/06/23 04:31:08;;;;;;;23.15;11.02;;;12.90;88.30;12.10;102019.00;;;;5039329;28;20068;-68
2021/06/23 04:33:34;;;;;;;20.30;11.13;;;13.00;88.40;12.10;102026.00;;;;5022869;28;20037;-67
2021/06/23 04:36:07;;;;;;;21.88;11.38;;;13.00;88.40;12.10;102019.00;;;;5040778;28;20087;-67
2021/06/23 04:38:34;;;;;;;15.75;9.35;;;13.00;87.60;12.10;102015.00;;;;5035010;28;20452;-67
2021/06/23 04:41:00;;;;;;;19.05;11.30;;;13.00;88.40;12.10;102017.00;;;;5041213;28;20512;-67
2021/06/23 04:43:30;;;;;;;21.27;11.13;;;13.00;88.40;12.20;102013.00;;;;5042692;28;20048;-67
2021/06/23 04:45:56;;;;;;;21.77;11.18;;;13.00;88.50;12.20;102012.00;;;;5042817;28;20056;-67
2021/06/23 04:48:23;;;;;;;18.08;10.63;;;13.00;88.40;12.20;102020.00;;;;5043190;28;20045;-67
2021/06/23 04:50:49;;;;;;;21.00;10.90;;;13.00;88.50;12.20;102017.00;;;;5050007;28;20041;-68
2021/06/23 04:53:22;;;;;;;21.50;11.10;;;13.50;88.80;12.20;102023.00;;;;5041390;28;20041;-68
2021/06/23 04:55:48;;;;;;;18.63;11.02;;;13.00;88.30;12.20;102013.00;;;;5039677;28;20687;-68
2021/06/23 04:58:19;;;;;;;21.88;10.77;;;13.00;88.40;12.20;102018.00;;;;5018638;28;20098;-69
2021/06/23 05:00:53;;;;;;;21.20;10.60;;;13.00;88.30;12.20;102014.00;;;;5044526;28;20039;-69
2021/06/23 05:03:32;;;;;;;19.10;11.70;;;13.00;88.50;12.20;102020.00;;;;5040550;28;20033;-69
2021/06/23 05:05:59;;;;;;;22.73;11.77;;;13.00;88.70;12.20;102006.00;;;;5038857;28;20118;-69
2021/06/23 05:08:26;;;;;;;;;;;13.00;88.60;12.20;102013.00;;;;5042742;28;20041;-69
2021/06/23 05:10:52;;;;;;;17.77;10.70;;;13.00;88.90;12.20;102011.00;;;;5039014;28;19943;-67
2021/06/23 05:13:18;;;;;;;17.98;10.77;;;13.00;87.80;12.20;102018.00;;;;5030614;28;20028;-67
2021/06/23 05:15:44;;;;;;;22.50;10.80;;;13.00;88.40;12.20;102027.00;;;;5039917;28;20605;-69
2021/06/23 05:18:10;;;;;;;25.70;11.40;;;13.10;88.60;12.20;102024.00;;;;5040579;28;20063;-69
2021/06/23 05:20:36;;;;;;;20.35;11.60;;;13.10;88.50;12.30;102015.00;;;;5037101;28;20099;-68
2021/06/23 05:23:03;;;;;;;26.13;11.75;;;13.10;88.70;12.30;102028.00;;;;5044011;28;20033;-68
2021/06/23 05:25:29;;;;;;;22.87;10.50;;;13.10;88.70;12.30;102024.00;;;;5025226;28;20059;-69
2021/06/23 05:27:55;;;;;;;17.13;10.40;;;13.10;87.50;12.30;102026.00;;;;5054925;28;20511;-66
2021/06/23 05:30:21;;;;;;;23.35;11.20;;;12.80;88.40;12.30;102022.00;;;;5040031;28;20130;-67
2021/06/23 05:32:47;;;;;;;23.08;10.88;;;13.10;88.50;12.40;102024.00;;;;5039857;28;20041;-67
2021/06/23 05:35:13;;;;;;;20.27;11.20;;;13.10;88.60;12.40;102030.00;;;;5044996;28;20040;-68
2021/06/23 05:37:40;;;;;;;19.88;11.70;;;13.20;88.60;12.40;102032.00;;;;5040765;28;20052;-68
2021/06/23 05:40:06;;;;;;;17.05;11.20;;;13.20;88.60;12.40;102039.00;;;;5053770;28;20045;-68
2021/06/23 05:42:32;;;;;;;21.75;11.48;;;13.20;88.60;12.40;102043.00;;;;5040999;28;20040;-68
2021/06/23 05:44:59;;;;;;;19.42;11.38;;;13.20;88.40;12.40;102030.00;;;;5040093;28;20041;-68
2021/06/23 05:47:25;;;;;;;19.13;11.32;;;13.20;87.50;12.40;102030.00;;;;5040772;28;20040;-69
2021/06/23 05:49:51;;;;;;;20.15;11.52;;;13.20;87.50;12.50;102040.00;;;;5037410;28;20389;-69
2021/06/23 05:52:17;;;;;;;21.65;11.88;;;13.20;87.80;12.50;102036.00;;;;5042666;28;20076;-68
2021/06/23 05:54:43;;;;;;;21.85;11.00;;;13.20;88.60;12.50;102043.00;;;;5024941;28;20051;-68
2021/06/23 05:57:09;;;;;;;20.35;11.50;;;13.30;87.90;12.50;102049.00;;;;5041121;28;20042;-68
2021/06/23 05:59:35;;;;;;;19.88;11.18;;;13.30;88.60;12.60;102051.00;;;;5039172;28;20057;-68
2021/06/23 06:02:01;;;;;;;19.02;10.07;;;13.30;88.70;12.60;102058.00;;;;5052281;28;20034;-68
2021/06/23 06:04:27;;;;;;;20.90;11.20;;;13.30;88.50;12.60;102045.00;;;;5040345;28;20080;-68
2021/06/23 06:06:53;;;;;;;20.30;11.52;;;13.40;88.70;12.70;102056.00;;;;5031054;28;20060;-68
2021/06/23 06:09:18;;;;;;;23.77;10.80;;;13.40;88.60;12.80;102052.00;;;;5040431;28;20442;-69
2021/06/23 06:11:44;;;;;;;18.25;11.25;;;13.50;88.70;12.80;102064.00;;;;5039101;28;20049;-69
2021/06/23 06:14:10;;;;;;;20.35;10.70;;;13.50;87.50;12.90;102065.00;;;;5039844;28;20738;-69
2021/06/23 06:16:36;;;;;;;19.52;11.85;;;13.60;88.50;12.90;102075.00;;;;5038331;28;20059;-69
2021/06/23 06:19:02;;;;;;;14.30;9.15;;;13.60;88.40;13.00;102071.00;;;;5040820;28;20742;-68
2021/06/23 06:21:28;;;;;;;18.33;10.32;;;13.70;88.60;13.00;102069.00;;;;5037069;28;20137;-69
2021/06/23 06:23:54;;;;;;;23.48;10.85;;;13.70;88.40;13.00;102059.00;;;;5038390;28;20079;-67
2021/06/23 06:26:20;;;;;;;18.25;9.75;;;13.80;87.00;13.10;102067.00;;;;5040997;28;20045;-68
2021/06/23 06:28:46;;;;;;;22.27;9.98;;;13.80;86.80;13.10;102070.00;;;;5041185;28;20048;-67
2021/06/23 06:31:13;;;;;;;17.92;10.15;;;13.80;86.70;13.10;102069.00;;;;5042673;28;20049;-67
2021/06/23 06:33:39;;;;;;;14.73;9.80;;;13.80;87.70;13.20;102081.00;;;;5043056;28;20039;-67
2021/06/23 06:36:05;;;;;;;19.42;9.95;;;13.80;87.50;13.20;102081.00;;;;5041420;28;20049;-69
2021/06/23 06:38:31;;;;;;;18.02;9.82;;;13.90;86.40;13.20;102080.00;;;;5042817;28;20041;-68
2021/06/23 06:40:57;;;;;;;16.27;9.60;;;13.90;87.40;13.30;102086.00;;;;5042994;28;20060;-68
2021/06/23 06:43:23;;;;;;;16.95;9.55;;;14.00;87.40;13.30;102092.00;;;;5029359;28;20033;-68
2021/06/23 06:45:51;;;;;;;18.55;10.20;;;14.30;87.50;13.30;102091.00;;;;5041101;28;20539;-68
2021/06/23 06:48:22;;;;;;;20.65;9.52;;;14.00;86.90;13.30;102102.00;;;;5045485;28;20036;-68
2021/06/23 06:50:49;;;;;;;17.85;9.23;;;14.00;87.00;13.30;102088.00;;;;5041328;28;20117;-67
2021/06/23 06:53:15;;;;;;;19.02;9.52;;;14.10;86.90;13.40;102091.00;;;;5041321;28;20557;-69
2021/06/23 06:55:41;;;;;;;19.63;9.47;;;14.00;85.90;13.50;102098.00;;;;5043203;28;20041;-68
2021/06/23 06:58:07;;;;;;;15.65;9.23;;;14.10;86.90;13.50;102094.00;;;;5040761;28;20118;-67
2021/06/23 07:00:33;;;;;;;15.05;8.82;;;14.20;86.70;13.50;102101.00;;;;5042555;28;20120;-68
2021/06/23 07:02:59;;;;;;;16.23;9.25;;;14.30;86.40;13.50;102101.00;;;;5043097;28;20455;-68
2021/06/23 07:05:25;;;;;;;16.75;8.57;;;14.20;86.10;13.50;102105.00;;;;5040140;28;20052;-68
2021/06/23 07:07:52;;;;;;;18.13;8.85;;;14.20;85.90;13.50;102102.00;;;;5058312;28;20107;-68
2021/06/23 07:10:18;;;;;;;16.45;8.48;;;14.20;86.10;13.50;102097.00;;;;5044340;28;20111;-69
2021/06/23 07:12:44;;;;;;;17.58;9.23;;;14.20;86.20;13.50;102098.00;;;;5044110;28;20116;-68
2021/06/23 07:15:12;;;;;;;20.52;9.48;;;14.20;86.10;13.60;102105.00;;;;5041300;28;20135;-68
2021/06/23 07:17:37;;;;;;;;;;;14.30;86.30;13.50;102109.00;;;;5043995;28;20072;-68
2021/06/23 07:20:05;;;;;;;15.90;8.70;;;14.30;86.00;13.60;102108.00;;;;5048377;28;19975;-68
2021/06/23 07:22:31;;;;;;;17.00;7.82;;;14.30;86.20;13.70;102096.00;;;;5041198;28;20046;-69
2021/06/23 07:24:57;;;;;;;15.55;8.77;;;14.40;86.00;13.80;102094.00;;;;5044188;28;20078;-69
2021/06/23 07:27:24;;;;;;;18.65;9.07;;;14.40;85.20;13.80;102097.00;;;;5028094;28;20041;-68
2021/06/23 07:29:52;;;;;;;20.70;8.50;;;14.50;86.10;13.90;102096.00;;;;5042094;28;20559;-69
2021/06/23 07:37:15;;;;;;;13.32;7.20;;;14.70;85.60;14.10;102087.00;;;;5042674;28;20124;-69
2021/06/23 07:39:41;;;;;;;12.95;6.18;;;14.80;84.90;14.20;102091.00;;;;5044201;28;20094;-68
2021/06/23 07:42:08;;;;;;;16.13;5.87;;;14.80;84.80;14.10;102092.00;;;;5043570;28;20061;-69
2021/06/23 07:44:40;;;;;;;14.35;6.18;;;14.80;83.90;14.10;102092.00;;;;5040404;28;20067;-69
2021/06/23 07:47:09;;;;;;;17.85;7.13;;;14.80;83.90;14.10;102090.00;;;;5044788;28;20111;-69
2021/06/23 07:49:39;;;;;;;15.02;6.30;;;14.80;84.10;14.20;102094.00;;;;5045468;28;20048;-69
2021/06/23 08:08:57;;;;;;;19.15;6.07;;;15.00;84.20;14.40;102091.00;;;;5044223;28;20114;-69
2021/06/23 08:11:32;;;;;;;15.90;6.25;;;15.10;82.70;14.50;102090.00;;;;5044909;28;20499;-68
2021/06/23 08:14:03;;;;;;;12.40;6.10;;;15.20;81.80;14.60;102090.00;;;;5024373;28;20061;-68
2021/06/23 08:16:30;;;;;;;14.18;5.82;;;15.30;83.00;14.70;102101.00;;;;5021992;28;20140;-69
2021/06/23 08:18:56;;;;;;;;;;;15.30;82.60;14.70;102101.00;;;;5021476;28;20103;-67
2021/06/23 08:21:22;;;;;;;12.50;5.47;;;15.20;82.20;14.80;102101.00;;;;5021603;28;19921;-69
2021/06/23 08:23:48;;;;;;;14.13;5.63;;;15.40;81.10;14.90;102111.00;;;;5024439;28;20566;-69
2021/06/23 08:26:14;;;;;;;12.70;4.40;;;15.60;80.00;15.00;102105.00;;;;5024912;28;20048;-69
2021/06/23 08:28:40;;;;;;;12.77;4.47;;;15.70;81.20;14.90;102113.00;;;;5022828;28;20053;-69
2021/06/23 08:31:06;;;;;;;9.65;4.18;;;15.60;79.40;14.90;102106.00;;;;5008515;28;20427;-69
2021/06/23 08:33:32;;;;;;;11.95;4.15;;;15.60;79.80;14.90;102092.00;;;;5022599;28;20531;-69
2021/06/23 08:35:58;;;;;;;10.50;4.55;;;15.60;79.20;14.90;102097.00;;;;5017028;28;20546;-69
2021/06/23 08:38:24;;;;;;;10.63;4.25;;;15.60;76.80;15.00;102095.00;;;;5024140;28;20041;-69
2021/06/23 08:40:51;;;;;;;10.73;3.97;;;15.60;78.70;15.10;102093.00;;;;5023033;28;20629;-69
2021/06/23 08:43:19;;;;;;;8.70;3.65;;;15.70;79.20;15.20;102093.00;;;;5026291;28;20033;-69
2021/06/23 08:45:45;;;;;;;9.73;3.65;;;15.80;78.20;15.30;102100.00;;;;5017638;28;20155;-69
2021/06/23 08:48:12;;;;;;;6.85;3.63;;;15.90;76.60;15.40;102093.00;;;;5020297;28;20354;-69
2021/06/23 08:50:38;;;;;;;;;;;16.00;78.10;15.50;102096.00;;;;5006842;28;20138;-68
2021/06/23 08:53:05;;;;;;;10.65;3.90;;;16.10;77.50;15.70;102103.00;;;;5022620;28;19954;-69
2021/06/23 08:55:31;;;;;;;11.95;4.30;;;16.30;77.40;15.80;102106.00;;;;5024511;28;20643;-70
2021/06/23 08:57:59;;;;;;;12.60;4.20;;;16.40;77.80;15.80;102102.00;;;;5021936;28;20041;-69
2021/06/23 09:00:26;;;;;;;15.18;4.38;;;16.40;76.70;15.90;102112.00;;;;5020236;28;20040;-69
2021/06/23 09:03:00;;;;;;;10.70;4.35;;;16.50;76.60;16.00;102109.00;;;;5021388;28;20041;-69
2021/06/23 09:05:26;;;;;;;9.77;3.83;;;16.50;77.30;16.00;102109.00;;;;5037554;28;20254;-69
2021/06/23 09:08:00;;;;;;;12.90;4.38;;;16.60;76.00;16.10;102110.00;;;;5022786;28;20044;-70
2021/06/23 09:10:26;;;;;;;10.02;4.60;;;16.70;76.10;16.10;102118.00;;;;5023532;28;20397;-69
2021/06/23 09:13:06;;;;;;;12.32;4.50;;;16.70;75.80;16.10;102117.00;;;;5023671;28;20037;-69
2021/06/23 09:15:55;;;;;;;12.45;4.78;;;16.80;74.30;16.30;102116.00;;;;5022648;28;20052;-69
2021/06/23 09:18:36;;;;;;;12.73;5.53;;;16.90;74.30;16.40;102118.00;;;;5036050;28;21033;-69
2021/06/23 09:21:18;;;;;;;6.78;3.60;;;17.00;76.10;16.30;102113.00;;;;5004644;28;20033;-69
2021/06/23 09:23:57;;;;;;;9.68;3.90;;;16.90;73.40;16.40;102121.00;;;;5023946;28;20038;-70
2021/06/23 09:26:36;;;;;;;14.75;4.32;;;17.00;73.70;16.50;102119.00;;;;5014930;28;20799;-70
2021/06/23 09:29:13;;;;;;;11.70;3.78;;;17.10;74.90;16.50;102125.00;;;;5023531;28;20045;-69
2021/06/23 09:31:53;;;;;;;18.13;3.92;;;17.10;72.60;16.50;102113.00;;;;5018191;28;20048;-69
2021/06/23 09:34:35;;;;;;;11.95;3.70;;;17.10;69.90;16.50;102116.00;;;;5022732;28;20045;-69
2021/06/23 09:37:28;;;;;;;11.15;3.83;;;17.10;72.30;16.50;102119.00;;;;5020789;28;20068;-69
2021/06/23 09:40:24;;;;;;;12.25;4.38;;;17.10;69.60;16.40;102115.00;;;;5022348;28;20041;-69
2021/06/23 09:43:01;;;;;;;10.23;3.80;;;17.10;69.00;16.60;102122.00;;;;5023502;28;20033;-68
2021/06/23 09:45:31;;;;;;;11.10;3.58;;;17.10;73.30;16.70;102114.00;;;;5004425;28;20046;-69
2021/06/23 09:48:08;;;;;;;9.77;3.63;;;17.30;71.60;16.90;102127.00;;;;5018878;28;20064;-69
2021/06/23 09:50:36;;;;;;;9.93;4.10;;;17.40;72.40;17.10;102119.00;;;;5022203;28;20062;-69
2021/06/23 09:53:02;;;;;;;11.32;4.10;;;17.60;73.00;17.30;102127.00;;;;5039769;28;20037;-68
2021/06/23 09:55:48;;;;;;;9.50;4.57;;;18.10;72.00;17.30;102127.00;;;;5024775;28;20738;-68
2021/06/23 09:58:21;;;;;;;11.18;4.43;;;17.80;69.60;17.20;102122.00;;;;5024646;28;20151;-68
2021/06/23 10:01:16;;;;;;;10.13;4.07;;;17.80;71.40;17.30;102117.00;;;;5018863;28;20057;-69
2021/06/23 10:04:12;;;;;;;11.10;3.88;;;17.90;69.70;17.30;102117.00;;;;5037717;28;20130;-69
2021/06/23 10:06:47;;;;;;;13.38;4.25;;;17.90;67.00;17.20;102120.00;;;;5015992;28;20053;-69
2021/06/23 10:09:20;;;;;;;7.22;3.50;;;17.80;69.40;17.10;102127.00;;;;5038126;28;20072;-69
2021/06/23 10:11:50;;;;;;;9.90;3.80;;;17.70;68.60;17.10;102131.00;;;;5023326;28;20045;-69
2021/06/23 10:14:16;;;;;;;11.07;3.95;;;17.70;69.40;17.10;102127.00;;;;5033119;28;20045;-70
2021/06/23 10:16:43;;;;;;;10.27;4.05;;;17.70;69.60;17.10;102132.00;;;;5018684;28;20075;-70
2021/06/23 10:19:10;;;;;;;10.27;4.07;;;17.70;68.60;17.00;102133.00;;;;5023544;28;20045;-69
2021/06/23 10:21:38;;;;;;;14.93;3.67;;;17.60;65.60;16.90;102116.00;;;;5023683;28;20072;-68
2021/06/23 10:24:09;;;;;;;10.07;4.20;;;17.60;66.40;17.00;102117.00;;;;5015464;28;20045;-68
2021/06/23 10:26:46;;;;;;;9.35;3.75;;;17.50;65.20;16.90;102126.00;;;;5022906;28;20033;-67
2021/06/23 10:29:15;;;;;;;8.68;3.33;;;17.50;66.00;17.00;102116.00;;;;5023773;28;20427;-69
2021/06/23 10:31:42;;;;;;;10.98;4.57;;;17.60;69.20;17.00;102129.00;;;;5015396;28;20048;-69
2021/06/23 10:34:09;;;;;;;;;;;17.60;69.10;17.00;102127.00;;;;5021121;28;20049;-69
2021/06/23 10:36:35;;;;;;;11.07;4.70;;;17.60;66.90;17.10;102119.00;;;;5022503;28;20003;-69
2021/06/23 10:39:04;;;;;;;9.68;4.60;;;17.70;69.50;17.20;102134.00;;;;5023041;28;20095;-69
2021/06/23 10:41:37;;;;;;;12.20;4.10;;;17.70;69.30;17.30;102131.00;;;;5015557;28;20045;-69
2021/06/23 10:44:21;;;;;;;9.43;3.80;;;17.90;68.80;17.50;102127.00;;;;5020370;28;20044;-69
2021/06/23 10:47:00;;;;;;;9.75;3.65;;;18.00;67.50;17.60;102130.00;;;;5036674;28;20056;-68
2021/06/23 10:49:50;;;;;;;11.18;4.10;;;18.10;64.80;17.70;102125.00;;;;5037543;28;20309;-69
2021/06/23 10:52:22;;;;;;;8.93;3.70;;;18.40;67.20;17.80;102134.00;;;;5019635;28;20048;-69
2021/06/23 10:55:00;;;;;;;9.32;3.80;;;18.30;67.60;17.90;102125.00;;;;5017646;28;20052;-69
2021/06/23 10:57:44;;;;;;;11.27;4.35;;;18.30;67.10;18.00;102131.00;;;;5017427;28;20049;-69
2021/06/23 11:00:11;;;;;;;11.00;4.47;;;18.50;66.80;18.00;102137.00;;;;5035653;28;20127;-69
2021/06/23 11:02:42;;;;;;;8.57;3.70;;;18.50;67.60;18.10;102130.00;;;;5021437;28;20050;-69
2021/06/23 11:05:22;;;;;;;10.30;4.15;;;18.60;66.30;18.10;102135.00;;;;5021500;28;20049;-69
2021/06/23 11:07:58;;;;;;;10.60;3.97;;;18.70;65.30;18.20;102148.00;;;;5023253;28;20055;-69
2021/06/23 11:10:35;;;;;;;9.73;4.78;;;18.70;67.00;18.20;102140.00;;;;5016219;28;20719;-68
2021/06/23 11:13:10;;;;;;;10.00;4.72;;;18.70;66.00;18.00;102137.00;;;;5019353;28;20827;-68